createdAt,value
2019-03-26T00:00:20.699Z,0.00
2019-03-26T00:01:20.694Z,0.00
2019-03-26T00:02:20.660Z,0.00
2019-03-26T00:03:20.461Z,0.00
2019-03-26T00:04:20.459Z,0.00
2019-03-26T00:05:20.337Z,0.00
2019-03-26T00:06:20.342Z,0.00
2019-03-26T00:07:20.300Z,0.00
2019-03-26T00:08:20.223Z,0.00
2019-03-26T00:09:20.225Z,0.00
2019-03-26T00:10:20.098Z,0.00
2019-03-26T00:11:20.099Z,0.00
2019-03-26T00:12:20.096Z,0.00
2019-03-26T00:13:19.983Z,0.00
2019-03-26T00:14:19.977Z,0.00
2019-03-26T00:15:19.862Z,0.00
2019-03-26T00:16:19.867Z,0.00
2019-03-26T00:17:19.853Z,0.00
2019-03-26T00:18:19.736Z,0.00
2019-03-26T00:19:19.741Z,0.00
2019-03-26T00:20:19.621Z,0.00
2019-03-26T00:21:19.617Z,0.00
2019-03-26T00:22:19.616Z,0.00
2019-03-26T00:23:19.499Z,0.00
2019-03-26T00:24:19.502Z,0.00
2019-03-26T00:25:19.376Z,0.00
2019-03-26T00:26:19.379Z,0.00
2019-03-26T00:27:19.379Z,0.00
2019-03-26T00:28:19.255Z,0.00
2019-03-26T00:29:19.260Z,0.00
2019-03-26T00:30:19.134Z,0.00
2019-03-26T00:31:19.135Z,0.00
2019-03-26T00:32:19.132Z,0.00
2019-03-26T00:33:19.014Z,0.00
2019-03-26T00:34:19.788Z,0.00
2019-03-26T00:35:18.895Z,0.00
2019-03-26T00:36:18.891Z,0.00
2019-03-26T00:37:18.897Z,0.00
2019-03-26T00:38:18.777Z,0.00
2019-03-26T00:39:18.770Z,0.00
2019-03-26T00:40:18.653Z,0.00
2019-03-26T00:41:18.651Z,0.00
2019-03-26T00:42:18.651Z,0.00
2019-03-26T00:43:18.536Z,0.00
2019-03-26T00:44:18.534Z,0.00
2019-03-26T00:45:18.411Z,0.00
2019-03-26T00:46:18.415Z,0.00
2019-03-26T00:47:18.409Z,0.00
2019-03-26T00:48:18.291Z,0.00
2019-03-26T00:49:18.291Z,0.00
2019-03-26T00:50:18.176Z,0.00
2019-03-26T00:51:18.173Z,0.00
2019-03-26T00:52:18.167Z,0.00
2019-03-26T00:53:18.060Z,0.00
2019-03-26T00:54:18.051Z,0.00
2019-03-26T00:55:23.009Z,0.00
2019-03-26T00:56:17.927Z,0.00
2019-03-26T00:57:17.927Z,0.00
2019-03-26T00:58:17.807Z,0.00
2019-03-26T00:59:17.814Z,0.00
2019-03-26T01:00:17.695Z,0.00
2019-03-26T01:01:17.689Z,0.00
2019-03-26T01:02:17.691Z,0.00
2019-03-26T01:03:17.568Z,0.00
2019-03-26T01:04:17.571Z,0.00
2019-03-26T01:05:17.450Z,0.00
2019-03-26T01:06:17.452Z,0.00
2019-03-26T01:07:17.447Z,0.00
2019-03-26T01:08:17.323Z,0.00
2019-03-26T01:09:17.330Z,0.00
2019-03-26T01:10:17.207Z,0.00
2019-03-26T01:11:17.206Z,0.00
2019-03-26T01:12:17.205Z,0.00
2019-03-26T01:13:17.095Z,0.00
2019-03-26T01:14:17.087Z,0.00
2019-03-26T01:15:16.962Z,0.00
2019-03-26T01:16:16.963Z,0.00
2019-03-26T01:17:16.968Z,0.00
2019-03-26T01:18:16.847Z,0.00
2019-03-26T01:19:16.842Z,0.00
2019-03-26T01:20:16.722Z,0.00
2019-03-26T01:21:16.724Z,0.00
2019-03-26T01:22:16.722Z,0.00
2019-03-26T01:23:16.601Z,0.00
2019-03-26T01:24:16.604Z,0.00
2019-03-26T01:25:16.481Z,0.00
2019-03-26T01:26:16.480Z,0.00
2019-03-26T01:27:16.487Z,0.00
2019-03-26T01:28:16.360Z,0.00
2019-03-26T01:29:16.360Z,0.00
2019-03-26T01:30:16.242Z,0.00
2019-03-26T01:31:16.242Z,0.00
2019-03-26T01:32:16.241Z,0.00
2019-03-26T01:33:16.121Z,0.00
2019-03-26T01:34:16.122Z,0.00
2019-03-26T01:35:15.998Z,0.00
2019-03-26T01:36:16.007Z,0.00
2019-03-26T01:37:16.003Z,0.00
2019-03-26T01:38:15.889Z,0.00
2019-03-26T01:39:15.945Z,0.00
2019-03-26T01:40:15.842Z,0.00
2019-03-26T01:41:15.791Z,0.00
2019-03-26T01:42:15.759Z,0.00
2019-03-26T01:43:15.642Z,0.00
2019-03-26T01:44:15.647Z,0.00
2019-03-26T01:45:15.600Z,0.00
2019-03-26T01:46:15.522Z,0.00
2019-03-26T01:47:15.516Z,0.00
2019-03-26T01:48:15.401Z,0.00
2019-03-26T01:49:15.397Z,0.00
2019-03-26T01:50:15.359Z,0.00
2019-03-26T01:51:15.280Z,0.00
2019-03-26T01:52:15.277Z,0.00
2019-03-26T01:53:15.155Z,0.00
2019-03-26T01:54:15.159Z,0.00
2019-03-26T01:55:15.152Z,0.00
2019-03-26T01:56:15.040Z,0.00
2019-03-26T01:57:15.040Z,0.00
2019-03-26T01:58:14.993Z,0.00
2019-03-26T01:59:14.921Z,0.00
2019-03-26T02:00:14.876Z,0.00
2019-03-26T02:01:14.797Z,0.00
2019-03-26T02:02:14.798Z,0.00
2019-03-26T02:03:14.680Z,0.00
2019-03-26T02:04:14.677Z,0.00
2019-03-26T02:05:14.636Z,0.00
2019-03-26T02:06:14.553Z,0.00
2019-03-26T02:07:14.560Z,0.00
2019-03-26T02:08:14.439Z,0.00
2019-03-26T02:09:14.431Z,0.00
2019-03-26T02:10:14.394Z,0.00
2019-03-26T02:11:14.316Z,0.00
2019-03-26T02:12:14.312Z,0.00
2019-03-26T02:13:14.192Z,0.00
2019-03-26T02:14:14.193Z,0.00
2019-03-26T02:15:14.186Z,0.00
2019-03-26T02:16:14.077Z,0.00
2019-03-26T02:17:14.075Z,0.00
2019-03-26T02:18:13.956Z,0.00
2019-03-26T02:19:13.950Z,0.00
2019-03-26T02:20:13.948Z,0.00
2019-03-26T02:21:13.831Z,0.00
2019-03-26T02:22:13.829Z,0.00
2019-03-26T02:23:13.709Z,0.00
2019-03-26T02:24:13.711Z,0.00
2019-03-26T02:25:13.715Z,0.00
2019-03-26T02:26:13.594Z,0.00
2019-03-26T02:27:13.593Z,0.00
2019-03-26T02:28:13.468Z,0.00
2019-03-26T02:29:13.471Z,0.00
2019-03-26T02:30:13.472Z,0.00
2019-03-26T02:31:13.351Z,0.00
2019-03-26T02:32:13.351Z,0.00
2019-03-26T02:33:13.231Z,0.00
2019-03-26T02:34:13.232Z,0.00
2019-03-26T02:35:18.435Z,0.00
2019-03-26T02:36:13.112Z,0.00
2019-03-26T02:37:13.106Z,0.00
2019-03-26T02:38:12.985Z,0.00
2019-03-26T02:39:12.992Z,0.00
2019-03-26T02:40:12.988Z,0.00
2019-03-26T02:41:12.876Z,0.00
2019-03-26T02:42:12.950Z,0.00
2019-03-26T02:43:12.744Z,0.00
2019-03-26T02:44:12.752Z,0.00
2019-03-26T02:45:12.752Z,0.00
2019-03-26T02:46:12.628Z,0.00
2019-03-26T02:47:12.624Z,0.00
2019-03-26T02:48:12.506Z,0.00
2019-03-26T02:49:12.513Z,0.00
2019-03-26T02:50:12.505Z,0.00
2019-03-26T02:51:12.389Z,0.00
2019-03-26T02:52:12.388Z,0.00
2019-03-26T02:53:12.267Z,0.00
2019-03-26T02:54:12.266Z,0.00
2019-03-26T02:55:12.265Z,0.00
2019-03-26T02:56:12.146Z,0.00
2019-03-26T02:57:12.150Z,0.00
2019-03-26T02:58:12.026Z,0.00
2019-03-26T02:59:12.022Z,0.00
2019-03-26T03:00:12.027Z,0.00
2019-03-26T03:01:11.903Z,0.00
2019-03-26T03:02:11.902Z,0.00
2019-03-26T03:03:11.785Z,0.00
2019-03-26T03:04:11.797Z,0.00
2019-03-26T03:05:11.785Z,0.00
2019-03-26T03:06:11.667Z,0.00
2019-03-26T03:07:11.664Z,0.00
2019-03-26T03:08:11.546Z,0.00
2019-03-26T03:09:11.544Z,0.00
2019-03-26T03:10:11.550Z,0.00
2019-03-26T03:11:11.422Z,0.00
2019-03-26T03:12:11.418Z,0.00
2019-03-26T03:13:11.299Z,0.00
2019-03-26T03:14:11.298Z,0.00
2019-03-26T03:15:11.298Z,0.00
2019-03-26T03:16:11.178Z,0.00
2019-03-26T03:17:11.180Z,0.00
2019-03-26T03:18:11.057Z,0.00
2019-03-26T03:19:11.073Z,0.00
2019-03-26T03:20:11.065Z,0.00
2019-03-26T03:21:10.938Z,0.00
2019-03-26T03:22:10.941Z,0.00
2019-03-26T03:23:10.817Z,0.00
2019-03-26T03:24:10.817Z,0.00
2019-03-26T03:25:10.820Z,0.00
2019-03-26T03:26:10.694Z,0.00
2019-03-26T03:27:10.696Z,0.00
2019-03-26T03:28:10.582Z,0.00
2019-03-26T03:29:10.576Z,0.00
2019-03-26T03:30:10.594Z,0.00
2019-03-26T03:31:10.465Z,0.00
2019-03-26T03:32:10.456Z,0.00
2019-03-26T03:33:10.342Z,0.00
2019-03-26T03:34:10.350Z,0.00
2019-03-26T03:35:10.338Z,0.00
2019-03-26T03:36:10.217Z,0.00
2019-03-26T03:37:10.218Z,0.00
2019-03-26T03:38:10.093Z,0.00
2019-03-26T03:39:10.108Z,0.00
2019-03-26T03:40:10.096Z,0.00
2019-03-26T03:41:09.973Z,0.00
2019-03-26T03:42:09.976Z,0.00
2019-03-26T03:43:09.859Z,0.00
2019-03-26T03:44:09.864Z,0.00
2019-03-26T03:45:09.877Z,0.00
2019-03-26T03:46:09.743Z,0.00
2019-03-26T03:47:09.737Z,0.00
2019-03-26T03:48:09.614Z,0.00
2019-03-26T03:49:09.615Z,0.00
2019-03-26T03:50:09.612Z,0.00
2019-03-26T03:51:09.497Z,0.00
2019-03-26T03:52:09.498Z,0.00
2019-03-26T03:53:09.376Z,0.00
2019-03-26T03:54:09.372Z,0.00
2019-03-26T03:55:09.389Z,0.00
2019-03-26T03:56:09.251Z,0.00
2019-03-26T03:57:09.248Z,0.00
2019-03-26T03:58:09.130Z,0.00
2019-03-26T03:59:09.131Z,0.00
2019-03-26T04:00:09.127Z,0.00
2019-03-26T04:01:09.016Z,0.00
2019-03-26T04:02:09.018Z,0.00
2019-03-26T04:03:08.894Z,0.00
2019-03-26T04:04:08.894Z,0.00
2019-03-26T04:05:08.890Z,0.00
2019-03-26T04:06:10.232Z,0.00
2019-03-26T04:07:08.768Z,0.00
2019-03-26T04:08:08.702Z,0.00
2019-03-26T04:09:08.647Z,0.00
2019-03-26T04:10:08.650Z,0.00
2019-03-26T04:11:08.532Z,0.00
2019-03-26T04:12:08.526Z,0.00
2019-03-26T04:13:08.409Z,0.00
2019-03-26T04:14:08.408Z,0.00
2019-03-26T04:15:08.410Z,0.00
2019-03-26T04:16:08.289Z,0.00
2019-03-26T04:17:08.287Z,0.00
2019-03-26T04:18:08.177Z,0.00
2019-03-26T04:19:08.166Z,0.00
2019-03-26T04:20:08.167Z,0.00
2019-03-26T04:21:08.050Z,0.00
2019-03-26T04:22:08.046Z,0.00
2019-03-26T04:23:07.922Z,0.00
2019-03-26T04:24:07.925Z,0.00
2019-03-26T04:25:07.927Z,0.00
2019-03-26T04:26:07.808Z,0.00
2019-03-26T04:27:07.805Z,0.00
2019-03-26T04:28:07.687Z,0.00
2019-03-26T04:29:07.693Z,0.00
2019-03-26T04:30:07.686Z,0.00
2019-03-26T04:31:07.573Z,0.00
2019-03-26T04:32:07.564Z,0.00
2019-03-26T04:33:07.451Z,0.00
2019-03-26T04:34:07.447Z,0.00
2019-03-26T04:35:07.445Z,0.00
2019-03-26T04:36:07.351Z,0.00
2019-03-26T04:37:07.321Z,0.00
2019-03-26T04:38:07.202Z,0.00
2019-03-26T04:39:07.204Z,0.00
2019-03-26T04:40:07.209Z,0.00
2019-03-26T04:41:07.084Z,0.00
2019-03-26T04:42:07.086Z,0.00
2019-03-26T04:43:06.960Z,0.00
2019-03-26T04:44:06.962Z,0.00
2019-03-26T04:45:06.959Z,0.00
2019-03-26T04:46:06.841Z,0.00
2019-03-26T04:47:06.838Z,0.00
2019-03-26T04:48:06.718Z,0.00
2019-03-26T04:49:06.794Z,0.00
2019-03-26T04:50:06.718Z,0.00
2019-03-26T04:51:06.601Z,0.00
2019-03-26T04:52:06.600Z,0.00
2019-03-26T04:53:06.481Z,0.00
2019-03-26T04:54:06.481Z,0.00
2019-03-26T04:55:06.477Z,0.00
2019-03-26T04:56:06.360Z,0.00
2019-03-26T04:57:06.361Z,0.00
2019-03-26T04:58:06.239Z,0.00
2019-03-26T04:59:06.238Z,0.00
2019-03-26T05:00:06.245Z,0.00
2019-03-26T05:01:06.119Z,0.00
2019-03-26T05:02:06.116Z,4.00
2019-03-26T05:03:06.002Z,4.00
2019-03-26T05:04:06.005Z,0.00
2019-03-26T05:05:05.998Z,0.00
2019-03-26T05:06:05.886Z,4.00
2019-03-26T05:07:05.877Z,4.00
2019-03-26T05:08:05.763Z,4.00
2019-03-26T05:09:05.771Z,8.00
2019-03-26T05:10:05.756Z,4.00
2019-03-26T05:11:05.640Z,4.00
2019-03-26T05:12:05.636Z,8.00
2019-03-26T05:13:05.516Z,8.00
2019-03-26T05:14:05.525Z,8.00
2019-03-26T05:15:05.523Z,12.00
2019-03-26T05:16:05.396Z,16.00
2019-03-26T05:17:05.398Z,16.00
2019-03-26T05:18:05.274Z,16.00
2019-03-26T05:19:05.277Z,20.00
2019-03-26T05:20:05.274Z,24.00
2019-03-26T05:21:05.159Z,20.00
2019-03-26T05:22:05.154Z,28.00
2019-03-26T05:23:05.038Z,28.00
2019-03-26T05:24:05.032Z,28.00
2019-03-26T05:25:05.039Z,32.00
2019-03-26T05:26:04.917Z,32.00
2019-03-26T05:27:04.910Z,36.00
2019-03-26T05:28:04.792Z,36.00
2019-03-26T05:29:04.789Z,40.00
2019-03-26T05:30:04.794Z,44.00
2019-03-26T05:31:04.669Z,52.00
2019-03-26T05:32:04.674Z,56.00
2019-03-26T05:33:04.552Z,64.00
2019-03-26T05:34:04.550Z,68.00
2019-03-26T05:35:04.556Z,76.00
2019-03-26T05:36:04.430Z,80.00
2019-03-26T05:37:04.431Z,88.00
2019-03-26T05:38:04.428Z,100.00
2019-03-26T05:39:04.319Z,108.00
2019-03-26T05:40:04.311Z,116.00
2019-03-26T05:41:04.201Z,120.00
2019-03-26T05:42:04.193Z,124.00
2019-03-26T05:43:04.073Z,128.00
2019-03-26T05:44:04.069Z,140.00
2019-03-26T05:45:04.074Z,156.00
2019-03-26T05:46:03.952Z,164.00
2019-03-26T05:47:03.945Z,168.00
2019-03-26T05:48:03.835Z,168.00
2019-03-26T05:49:03.835Z,172.00
2019-03-26T05:50:03.833Z,176.00
2019-03-26T05:51:03.705Z,184.00
2019-03-26T05:52:03.723Z,196.00
2019-03-26T05:53:03.590Z,200.00
2019-03-26T05:54:03.589Z,200.00
2019-03-26T05:55:03.591Z,188.00
2019-03-26T05:56:03.462Z,180.00
2019-03-26T05:57:03.471Z,184.00
2019-03-26T05:58:03.352Z,192.00
2019-03-26T05:59:03.354Z,196.00
2019-03-26T06:00:03.344Z,240.00
2019-03-26T06:01:03.222Z,296.00
2019-03-26T06:02:13.447Z,348.00
2019-03-26T06:03:03.106Z,388.00
2019-03-26T06:04:03.105Z,428.00
2019-03-26T06:05:03.109Z,464.00
2019-03-26T06:06:02.986Z,504.00
2019-03-26T06:07:05.220Z,552.00
2019-03-26T06:08:02.866Z,592.00
2019-03-26T06:09:02.867Z,616.00
2019-03-26T06:10:02.869Z,612.00
2019-03-26T06:11:02.749Z,616.00
2019-03-26T06:12:02.948Z,600.00
2019-03-26T06:13:02.627Z,616.00
2019-03-26T06:14:02.623Z,628.00
2019-03-26T06:15:02.624Z,660.00
2019-03-26T06:16:02.505Z,684.00
2019-03-26T06:17:02.587Z,700.00
2019-03-26T06:18:02.386Z,720.00
2019-03-26T06:19:02.381Z,744.00
2019-03-26T06:20:02.379Z,756.00
2019-03-26T06:21:02.260Z,776.00
2019-03-26T06:22:02.265Z,788.00
2019-03-26T06:23:02.142Z,808.00
2019-03-26T06:24:02.146Z,812.00
2019-03-26T06:25:02.154Z,808.00
2019-03-26T06:26:02.022Z,788.00
2019-03-26T06:27:02.018Z,764.00
2019-03-26T06:28:01.898Z,728.00
2019-03-26T06:29:01.899Z,688.00
2019-03-26T06:30:01.902Z,664.00
2019-03-26T06:31:01.782Z,636.00
2019-03-26T06:32:01.778Z,592.00
2019-03-26T06:33:01.658Z,576.00
2019-03-26T06:34:01.660Z,564.00
2019-03-26T06:35:01.660Z,552.00
2019-03-26T06:36:01.536Z,508.00
2019-03-26T06:37:01.545Z,464.00
2019-03-26T06:38:01.427Z,420.00
2019-03-26T06:39:01.418Z,380.00
2019-03-26T06:40:01.416Z,372.00
2019-03-26T06:41:01.297Z,404.00
2019-03-26T06:42:01.298Z,448.00
2019-03-26T06:43:01.178Z,484.00
2019-03-26T06:44:01.175Z,532.00
2019-03-26T06:45:01.176Z,572.00
2019-03-26T06:46:01.056Z,600.00
2019-03-26T06:47:01.053Z,624.00
2019-03-26T06:48:03.963Z,620.00
2019-03-26T06:49:00.937Z,624.00
2019-03-26T06:50:00.937Z,648.00
2019-03-26T06:51:00.814Z,672.00
2019-03-26T06:52:00.815Z,684.00
2019-03-26T06:53:00.774Z,700.00
2019-03-26T06:54:00.693Z,724.00
2019-03-26T06:55:00.692Z,748.00
2019-03-26T06:56:00.578Z,788.00
2019-03-26T06:57:00.570Z,816.00
2019-03-26T06:58:00.572Z,816.00
2019-03-26T06:59:00.453Z,792.00
2019-03-26T07:00:00.453Z,740.00
2019-03-26T07:01:00.335Z,720.00
2019-03-26T07:02:00.351Z,752.00
2019-03-26T07:03:00.333Z,784.00
2019-03-26T07:04:00.217Z,788.00
2019-03-26T07:05:00.455Z,804.00
2019-03-26T07:06:00.089Z,856.00
2019-03-26T07:07:00.091Z,896.00
2019-03-26T07:08:00.090Z,900.00
2019-03-26T07:08:59.969Z,888.00
2019-03-26T07:09:59.972Z,880.00
2019-03-26T07:10:59.853Z,868.00
2019-03-26T07:11:59.847Z,868.00
2019-03-26T07:12:59.849Z,904.00
2019-03-26T07:13:59.727Z,960.00
2019-03-26T07:14:59.727Z,1012.00
2019-03-26T07:15:59.615Z,1072.00
2019-03-26T07:16:59.605Z,1164.00
2019-03-26T07:17:59.612Z,1292.00
2019-03-26T07:18:59.487Z,1508.00
2019-03-26T07:19:59.493Z,1740.00
2019-03-26T07:20:59.369Z,1964.00
2019-03-26T07:21:59.370Z,2080.00
2019-03-26T07:22:59.367Z,2048.00
2019-03-26T07:23:59.250Z,1864.00
2019-03-26T07:24:59.249Z,1668.00
2019-03-26T07:25:59.126Z,1448.00
2019-03-26T07:26:59.124Z,1312.00
2019-03-26T07:27:59.149Z,1284.00
2019-03-26T07:28:59.008Z,1332.00
2019-03-26T07:29:59.005Z,1360.00
2019-03-26T07:30:58.947Z,1352.00
2019-03-26T07:31:58.886Z,1352.00
2019-03-26T07:32:58.893Z,1436.00
2019-03-26T07:33:58.766Z,1556.00
2019-03-26T07:34:58.766Z,1596.00
2019-03-26T07:35:58.659Z,1544.00
2019-03-26T07:36:58.648Z,1520.00
2019-03-26T07:37:58.641Z,1488.00
2019-03-26T07:38:58.521Z,1420.00
2019-03-26T07:39:58.523Z,1336.00
2019-03-26T07:40:58.401Z,1292.00
2019-03-26T07:41:58.403Z,1288.00
2019-03-26T07:42:58.400Z,1376.00
2019-03-26T07:43:58.292Z,1424.00
2019-03-26T07:44:58.281Z,1456.00
2019-03-26T07:45:58.170Z,1468.00
2019-03-26T07:46:58.168Z,1464.00
2019-03-26T07:47:58.164Z,1424.00
2019-03-26T07:48:58.042Z,1404.00
2019-03-26T07:49:58.044Z,1380.00
2019-03-26T07:50:57.918Z,1316.00
2019-03-26T07:51:57.922Z,1256.00
2019-03-26T07:52:57.922Z,1268.00
2019-03-26T07:53:57.803Z,1368.00
2019-03-26T07:54:57.803Z,1472.00
2019-03-26T07:55:57.762Z,1564.00
2019-03-26T07:56:57.681Z,1688.00
2019-03-26T07:57:57.679Z,1876.00
2019-03-26T07:58:57.558Z,1984.00
2019-03-26T07:59:57.561Z,2000.00
2019-03-26T08:00:57.554Z,2020.00
2019-03-26T08:01:57.441Z,2068.00
2019-03-26T08:02:57.436Z,2060.00
2019-03-26T08:03:57.320Z,1932.00
2019-03-26T08:04:57.319Z,1788.00
2019-03-26T08:05:57.317Z,1824.00
2019-03-26T08:06:57.199Z,2028.00
2019-03-26T08:07:58.502Z,2224.00
2019-03-26T08:08:57.084Z,2472.00
2019-03-26T08:09:57.080Z,2628.00
2019-03-26T08:10:57.104Z,2720.00
2019-03-26T08:11:56.957Z,2692.00
2019-03-26T08:12:56.984Z,2588.00
2019-03-26T08:13:56.864Z,2332.00
2019-03-26T08:14:56.835Z,2132.00
2019-03-26T08:15:56.839Z,2120.00
2019-03-26T08:16:56.724Z,2176.00
2019-03-26T08:17:56.713Z,2368.00
2019-03-26T08:18:56.593Z,2480.00
2019-03-26T08:19:56.596Z,2496.00
2019-03-26T08:20:57.602Z,2616.00
2019-03-26T08:21:56.472Z,2652.00
2019-03-26T08:22:56.475Z,2672.00
2019-03-26T08:23:56.357Z,2864.00
2019-03-26T08:24:56.360Z,3580.00
2019-03-26T08:25:56.353Z,4116.00
2019-03-26T08:26:56.233Z,3796.00
2019-03-26T08:27:56.230Z,3568.00
2019-03-26T08:28:56.120Z,3540.00
2019-03-26T08:29:56.111Z,3412.00
2019-03-26T08:30:56.111Z,3284.00
2019-03-26T08:31:55.990Z,3216.00
2019-03-26T08:32:55.990Z,3472.00
2019-03-26T08:33:55.872Z,4292.00
2019-03-26T08:34:55.874Z,3996.00
2019-03-26T08:35:55.875Z,3592.00
2019-03-26T08:36:55.750Z,3440.00
2019-03-26T08:37:55.749Z,3512.00
2019-03-26T08:38:55.711Z,3696.00
2019-03-26T08:39:55.632Z,3812.00
2019-03-26T08:40:55.637Z,3940.00
2019-03-26T08:41:55.509Z,4148.00
2019-03-26T08:42:55.507Z,4308.00
2019-03-26T08:43:55.509Z,4616.00
2019-03-26T08:44:55.388Z,5460.00
2019-03-26T08:45:55.392Z,4328.00
2019-03-26T08:46:55.272Z,3944.00
2019-03-26T08:47:55.271Z,3732.00
2019-03-26T08:48:55.266Z,3636.00
2019-03-26T08:49:55.147Z,3668.00
2019-03-26T08:50:55.152Z,3724.00
2019-03-26T08:51:55.027Z,3820.00
2019-03-26T08:52:55.029Z,3880.00
2019-03-26T08:53:55.044Z,3832.00
2019-03-26T08:54:54.905Z,3864.00
2019-03-26T08:55:54.910Z,3652.00
2019-03-26T08:56:54.787Z,3188.00
2019-03-26T08:57:54.788Z,2708.00
2019-03-26T08:58:54.791Z,2220.00
2019-03-26T08:59:54.672Z,1800.00
2019-03-26T09:00:54.673Z,1616.00
2019-03-26T09:01:54.672Z,1768.00
2019-03-26T09:02:54.547Z,2188.00
2019-03-26T09:03:54.543Z,2660.00
2019-03-26T09:04:54.424Z,3136.00
2019-03-26T09:05:54.429Z,3696.00
2019-03-26T09:06:54.422Z,4216.00
2019-03-26T09:07:54.310Z,4544.00
2019-03-26T09:08:54.307Z,4740.00
2019-03-26T09:09:54.181Z,4564.00
2019-03-26T09:10:54.186Z,4060.00
2019-03-26T09:11:54.184Z,3420.00
2019-03-26T09:12:54.063Z,2956.00
2019-03-26T09:13:54.062Z,2612.00
2019-03-26T09:14:53.940Z,2356.00
2019-03-26T09:15:53.944Z,2128.00
2019-03-26T09:16:53.940Z,1924.00
2019-03-26T09:17:53.835Z,1780.00
2019-03-26T09:18:53.819Z,1708.00
2019-03-26T09:19:53.821Z,1616.00
2019-03-26T09:20:53.705Z,1572.00
2019-03-26T09:21:53.700Z,1560.00
2019-03-26T09:22:53.582Z,1528.00
2019-03-26T09:23:53.578Z,1468.00
2019-03-26T09:24:53.581Z,1364.00
2019-03-26T09:25:53.460Z,1244.00
2019-03-26T09:26:53.457Z,1104.00
2019-03-26T09:27:53.343Z,1024.00
2019-03-26T09:28:53.342Z,1008.00
2019-03-26T09:29:53.341Z,1008.00
2019-03-26T09:30:53.220Z,1028.00
2019-03-26T09:31:53.544Z,1084.00
2019-03-26T09:32:53.188Z,1172.00
2019-03-26T09:33:53.103Z,1264.00
2019-03-26T09:34:53.097Z,1288.00
2019-03-26T09:35:52.988Z,1308.00
2019-03-26T09:36:52.975Z,1368.00
2019-03-26T09:37:52.983Z,1452.00
2019-03-26T09:38:52.855Z,1564.00
2019-03-26T09:39:52.858Z,1636.00
2019-03-26T09:40:52.734Z,1820.00
2019-03-26T09:41:52.745Z,2136.00
2019-03-26T09:42:52.739Z,2208.00
2019-03-26T09:43:52.616Z,2164.00
2019-03-26T09:44:52.619Z,2208.00
2019-03-26T09:45:52.495Z,2376.00
2019-03-26T09:46:52.496Z,2620.00
2019-03-26T09:47:52.499Z,2768.00
2019-03-26T09:48:52.382Z,2896.00
2019-03-26T09:49:52.372Z,3120.00
2019-03-26T09:50:52.257Z,3264.00
2019-03-26T09:51:52.254Z,3164.00
2019-03-26T09:52:52.252Z,3088.00
2019-03-26T09:53:52.224Z,3124.00
2019-03-26T09:54:52.145Z,3272.00
2019-03-26T09:55:52.133Z,3456.00
2019-03-26T09:56:52.027Z,3748.00
2019-03-26T09:57:52.019Z,4100.00
2019-03-26T09:58:51.891Z,4476.00
2019-03-26T09:59:51.898Z,4852.00
2019-03-26T10:00:52.054Z,5144.00
2019-03-26T10:01:51.770Z,5280.00
2019-03-26T10:02:51.787Z,5360.00
2019-03-26T10:03:51.656Z,5400.00
2019-03-26T10:04:51.659Z,5380.00
2019-03-26T10:05:51.654Z,5388.00
2019-03-26T10:06:51.532Z,5436.00
2019-03-26T10:07:51.531Z,5472.00
2019-03-26T10:08:52.879Z,5476.00
2019-03-26T10:09:51.409Z,5424.00
2019-03-26T10:10:51.408Z,5428.00
2019-03-26T10:11:51.289Z,5160.00
2019-03-26T10:12:51.288Z,5084.00
2019-03-26T10:13:51.286Z,4840.00
2019-03-26T10:14:51.172Z,4936.00
2019-03-26T10:15:51.171Z,4748.00
2019-03-26T10:16:51.049Z,4816.00
2019-03-26T10:17:51.050Z,4860.00
2019-03-26T10:18:51.049Z,4884.00
2019-03-26T10:19:50.928Z,4920.00
2019-03-26T10:20:50.930Z,4760.00
2019-03-26T10:21:50.881Z,4812.00
2019-03-26T10:22:50.811Z,4920.00
2019-03-26T10:23:50.806Z,5028.00
2019-03-26T10:24:50.687Z,5132.00
2019-03-26T10:25:50.688Z,5396.00
2019-03-26T10:26:50.767Z,5380.00
2019-03-26T10:27:50.679Z,5476.00
2019-03-26T10:28:50.686Z,5684.00
2019-03-26T10:29:50.462Z,5716.00
2019-03-26T10:30:50.457Z,6472.00
2019-03-26T10:31:50.446Z,6252.00
2019-03-26T10:32:50.326Z,5388.00
2019-03-26T10:33:50.325Z,5268.00
2019-03-26T10:34:50.203Z,5260.00
2019-03-26T10:35:50.204Z,5216.00
2019-03-26T10:36:50.202Z,5196.00
2019-03-26T10:37:50.085Z,5356.00
2019-03-26T10:38:50.580Z,5460.00
2019-03-26T10:39:50.086Z,5660.00
2019-03-26T10:40:49.963Z,5524.00
2019-03-26T10:41:49.971Z,5476.00
2019-03-26T10:42:49.842Z,5424.00
2019-03-26T10:43:49.848Z,5276.00
2019-03-26T10:44:49.845Z,4664.00
2019-03-26T10:45:49.727Z,4140.00
2019-03-26T10:46:49.730Z,3816.00
2019-03-26T10:47:49.717Z,3688.00
2019-03-26T10:48:49.602Z,3680.00
2019-03-26T10:49:49.599Z,3880.00
2019-03-26T10:50:49.498Z,3980.00
2019-03-26T10:51:49.491Z,4108.00
2019-03-26T10:52:49.485Z,4548.00
2019-03-26T10:53:49.363Z,5076.00
2019-03-26T10:54:49.360Z,4852.00
2019-03-26T10:55:49.241Z,4644.00
2019-03-26T10:56:49.243Z,5024.00
2019-03-26T10:57:49.242Z,5448.00
2019-03-26T10:58:49.120Z,5696.00
2019-03-26T10:59:49.119Z,5260.00
2019-03-26T11:00:49.141Z,4328.00
2019-03-26T11:01:49.002Z,3680.00
2019-03-26T11:02:48.998Z,3580.00
2019-03-26T11:03:48.880Z,3740.00
2019-03-26T11:04:48.879Z,4056.00
2019-03-26T11:05:48.880Z,4068.00
2019-03-26T11:06:48.757Z,3908.00
2019-03-26T11:07:48.757Z,3840.00
2019-03-26T11:08:48.760Z,3532.00
2019-03-26T11:09:48.640Z,3300.00
2019-03-26T11:10:48.640Z,3172.00
2019-03-26T11:11:48.524Z,3108.00
2019-03-26T11:12:48.523Z,3100.00
2019-03-26T11:13:48.516Z,3044.00
2019-03-26T11:14:48.401Z,2636.00
2019-03-26T11:15:48.397Z,2460.00
2019-03-26T11:16:48.392Z,2468.00
2019-03-26T11:17:48.278Z,2608.00
2019-03-26T11:18:48.279Z,2880.00
2019-03-26T11:19:48.156Z,3200.00
2019-03-26T11:21:01.365Z,3276.00
2019-03-26T11:21:48.154Z,3228.00
2019-03-26T11:22:48.038Z,2976.00
2019-03-26T11:23:48.035Z,2712.00
2019-03-26T11:24:47.913Z,2572.00
2019-03-26T11:25:47.922Z,2644.00
2019-03-26T11:26:47.912Z,2484.00
2019-03-26T11:27:47.792Z,2184.00
2019-03-26T11:28:47.796Z,1888.00
2019-03-26T11:29:47.789Z,1744.00
2019-03-26T11:30:47.673Z,1680.00
2019-03-26T11:31:47.671Z,1412.00
2019-03-26T11:32:47.552Z,1392.00
2019-03-26T11:33:47.549Z,1468.00
2019-03-26T11:34:47.552Z,1320.00
2019-03-26T11:35:47.436Z,1232.00
2019-03-26T11:36:47.431Z,1264.00
2019-03-26T11:37:47.434Z,1408.00
2019-03-26T11:38:47.311Z,1604.00
2019-03-26T11:39:50.992Z,1736.00
2019-03-26T11:40:47.193Z,1812.00
2019-03-26T11:41:47.187Z,1980.00
2019-03-26T11:42:47.199Z,2156.00
2019-03-26T11:43:47.078Z,2300.00
2019-03-26T11:44:47.067Z,2140.00
2019-03-26T11:45:46.947Z,2052.00
2019-03-26T11:46:46.950Z,2204.00
2019-03-26T11:47:46.949Z,2444.00
2019-03-26T11:48:46.829Z,2828.00
2019-03-26T11:49:46.827Z,3212.00
2019-03-26T11:50:46.836Z,3760.00
2019-03-26T11:51:46.714Z,4448.00
2019-03-26T11:52:46.707Z,5060.00
2019-03-26T11:53:46.591Z,5320.00
2019-03-26T11:54:46.590Z,5236.00
2019-03-26T11:55:46.587Z,5204.00
2019-03-26T11:56:46.467Z,5104.00
2019-03-26T11:57:46.470Z,4932.00
2019-03-26T11:58:46.348Z,4828.00
2019-03-26T11:59:46.350Z,4856.00
2019-03-26T12:00:46.352Z,4896.00
2019-03-26T12:01:46.226Z,5000.00
2019-03-26T12:02:46.228Z,4984.00
2019-03-26T12:03:46.225Z,5156.00
2019-03-26T12:04:46.105Z,5196.00
2019-03-26T12:05:46.109Z,5068.00
2019-03-26T12:06:45.982Z,4824.00
2019-03-26T12:07:45.983Z,4464.00
2019-03-26T12:08:45.983Z,3976.00
2019-03-26T12:09:46.858Z,3644.00
2019-03-26T12:10:45.865Z,3708.00
2019-03-26T12:11:45.824Z,4060.00
2019-03-26T12:12:45.741Z,4208.00
2019-03-26T12:13:45.746Z,3984.00
2019-03-26T12:14:45.621Z,3620.00
2019-03-26T12:15:45.621Z,3308.00
2019-03-26T12:16:45.626Z,2956.00
2019-03-26T12:17:45.504Z,2652.00
2019-03-26T12:18:45.503Z,2528.00
2019-03-26T12:19:45.383Z,2668.00
2019-03-26T12:20:45.388Z,2628.00
2019-03-26T12:21:45.393Z,2356.00
2019-03-26T12:22:45.266Z,2288.00
2019-03-26T12:23:45.261Z,2524.00
2019-03-26T12:24:45.262Z,2968.00
2019-03-26T12:25:45.143Z,3396.00
2019-03-26T12:26:45.151Z,3584.00
2019-03-26T12:27:45.023Z,3800.00
2019-03-26T12:28:45.023Z,3992.00
2019-03-26T12:29:45.024Z,4092.00
2019-03-26T12:30:44.900Z,4108.00
2019-03-26T12:31:44.898Z,4052.00
2019-03-26T12:32:44.901Z,3724.00
2019-03-26T12:33:44.779Z,3476.00
2019-03-26T12:34:44.790Z,3260.00
2019-03-26T12:35:44.662Z,3104.00
2019-03-26T12:36:44.666Z,3040.00
2019-03-26T12:37:44.661Z,3072.00